createdAt,value
2019-02-08T00:00:22.987Z,99512.42
2019-02-08T00:02:51.480Z,99500.58
2019-02-08T00:05:20.278Z,99512.14
2019-02-08T00:07:48.735Z,99511.36
2019-02-08T00:10:18.956Z,99508.75
2019-02-08T00:12:47.512Z,99515.39
2019-02-08T00:15:18.779Z,99510.58
2019-02-08T00:17:47.314Z,99507.82
2019-02-08T00:20:17.334Z,99517.55
2019-02-08T00:22:45.785Z,99521.30
2019-02-08T00:25:16.392Z,99519.27
2019-02-08T00:27:44.993Z,99523.50
2019-02-08T00:30:16.885Z,99524.47
2019-02-08T00:32:45.410Z,99529.67
2019-02-08T00:35:14.475Z,99530.41
2019-02-08T00:37:43.005Z,99534.98
2019-02-08T00:40:14.197Z,99537.27
2019-02-08T00:42:42.937Z,99539.67
2019-02-08T00:45:17.423Z,99536.20
2019-02-08T00:47:46.253Z,99537.53
2019-02-08T00:50:27.915Z,99527.73
2019-02-08T00:52:56.379Z,99525.70
2019-02-08T00:55:25.717Z,99524.45
2019-02-08T00:57:54.462Z,99520.09
2019-02-08T01:00:23.525Z,99521.97
2019-02-08T01:02:53.591Z,99520.27
2019-02-08T01:05:28.771Z,99523.27
2019-02-08T01:07:57.645Z,99523.73
2019-02-08T01:10:28.406Z,99532.33
2019-02-08T01:12:57.328Z,99524.31
2019-02-08T01:15:28.739Z,99523.38
2019-02-08T01:17:57.341Z,99521.16
2019-02-08T01:20:26.223Z,99527.73
2019-02-08T01:22:54.911Z,99523.45
2019-02-08T01:25:25.303Z,99526.66
2019-02-08T01:27:53.846Z,99530.80
2019-02-08T01:30:29.943Z,99528.37
2019-02-08T01:32:58.493Z,99524.52
2019-02-08T01:35:27.282Z,99531.50
2019-02-08T01:37:57.347Z,99526.84
2019-02-08T01:40:28.047Z,99534.11
2019-02-08T01:42:56.465Z,99536.72
2019-02-08T01:45:30.001Z,99530.55
2019-02-08T01:48:04.004Z,99528.96
2019-02-08T01:50:32.454Z,99524.93
2019-02-08T01:53:01.182Z,99523.30
2019-02-08T01:55:29.817Z,99526.03
2019-02-08T01:57:58.441Z,99525.75
2019-02-08T02:00:40.684Z,99525.44
2019-02-08T02:03:10.250Z,99526.77
2019-02-08T02:05:38.713Z,99518.38
2019-02-08T02:08:08.221Z,99518.00
2019-02-08T02:10:42.778Z,99517.12
2019-02-08T02:13:11.477Z,99508.66
2019-02-08T02:15:40.315Z,99514.38
2019-02-08T02:18:09.826Z,99518.51
2019-02-08T02:20:40.446Z,99520.23
2019-02-08T02:23:10.051Z,99516.64
2019-02-08T02:25:39.350Z,99522.10
2019-02-08T02:28:07.864Z,99522.56
2019-02-08T02:30:37.352Z,99526.41
2019-02-08T02:33:08.650Z,99514.20
2019-02-08T02:35:37.124Z,99517.21
2019-02-08T02:38:05.901Z,99518.71
2019-02-08T02:40:34.431Z,99518.77
2019-02-08T02:43:02.882Z,99512.41
2019-02-08T02:45:37.062Z,99508.23
2019-02-08T02:48:07.050Z,99503.45
2019-02-08T02:50:35.566Z,99507.36
2019-02-08T02:53:04.460Z,99507.16
2019-02-08T02:55:32.971Z,99512.21
2019-02-08T02:58:01.383Z,99509.22
2019-02-08T03:00:32.689Z,99513.53
2019-02-08T03:03:01.102Z,99510.42
2019-02-08T03:05:29.635Z,99514.20
2019-02-08T03:07:58.094Z,99510.81
2019-02-08T03:10:26.639Z,99506.70
2019-02-08T03:12:55.073Z,99510.12
2019-02-08T03:15:24.584Z,99507.72
2019-02-08T03:17:53.823Z,99515.85
2019-02-08T03:20:24.172Z,99508.05
2019-02-08T03:22:52.625Z,99506.50
2019-02-08T03:25:23.904Z,99506.70
2019-02-08T03:27:52.859Z,99508.52
2019-02-08T03:30:28.405Z,99501.30
2019-02-08T03:32:56.892Z,99504.36
2019-02-08T03:35:27.016Z,99512.44
2019-02-08T03:37:56.420Z,99508.53
2019-02-08T03:40:27.204Z,99510.25
2019-02-08T03:42:55.652Z,99510.25
2019-02-08T03:45:25.044Z,99506.70
2019-02-08T03:47:53.670Z,99502.27
2019-02-08T03:50:23.577Z,99504.81
2019-02-08T03:52:53.212Z,99504.20
2019-02-08T03:55:23.487Z,99503.63
2019-02-08T03:57:51.973Z,99496.63
2019-02-08T04:00:30.658Z,99497.22
2019-02-08T04:02:59.201Z,99494.62
2019-02-08T04:05:27.793Z,99490.84
2019-02-08T04:07:56.302Z,99494.35
2019-02-08T04:10:24.795Z,99486.33
2019-02-08T04:12:53.268Z,99486.34
2019-02-08T04:15:23.372Z,99486.19
2019-02-08T04:17:52.084Z,99480.00
2019-02-08T04:20:26.107Z,99483.94
2019-02-08T04:22:55.632Z,99489.14
2019-02-08T04:25:24.612Z,99482.64
2019-02-08T04:27:53.550Z,99484.83
2019-02-08T04:30:27.074Z,99479.52
2019-02-08T04:32:55.839Z,99475.62
2019-02-08T04:35:24.575Z,99478.38
2019-02-08T04:37:53.054Z,99469.48
2019-02-08T04:40:23.380Z,99469.95
2019-02-08T04:42:52.092Z,99477.81
2019-02-08T04:45:20.795Z,99476.98
2019-02-08T04:47:49.311Z,99474.59
2019-02-08T04:50:26.095Z,99473.91
2019-02-08T04:52:55.007Z,99485.45
2019-02-08T04:55:23.467Z,99482.91
2019-02-08T04:57:51.888Z,99483.69
2019-02-08T05:00:31.333Z,99483.83
2019-02-08T05:02:59.733Z,99487.55
2019-02-08T05:05:28.261Z,99486.97
2019-02-08T05:07:56.674Z,99484.94
2019-02-08T05:10:27.877Z,99480.20
2019-02-08T05:12:56.316Z,99481.39
2019-02-08T05:15:24.950Z,99482.28
2019-02-08T05:17:53.394Z,99493.05
2019-02-08T05:20:24.380Z,99496.33
2019-02-08T05:22:52.973Z,99485.45
2019-02-08T05:25:21.618Z,99488.47
2019-02-08T05:27:52.553Z,99480.14
2019-02-08T05:30:32.400Z,99483.20
2019-02-08T05:33:00.890Z,99478.06
2019-02-08T05:35:29.415Z,99478.11
2019-02-08T05:37:58.374Z,99474.16
2019-02-08T05:40:26.829Z,99478.27
2019-02-08T05:42:55.281Z,99480.88
2019-02-08T05:45:25.002Z,99475.56
2019-02-08T05:47:53.516Z,99473.23
2019-02-08T05:50:31.721Z,99471.09
2019-02-08T05:53:00.142Z,99470.58
2019-02-08T05:55:30.746Z,99474.16
2019-02-08T05:57:59.232Z,99464.64
2019-02-08T06:00:37.967Z,99460.63
2019-02-08T06:03:06.563Z,99455.70
2019-02-08T06:05:35.087Z,99458.48
2019-02-08T06:08:03.777Z,99458.24
2019-02-08T06:10:32.223Z,99460.73
2019-02-08T06:13:00.751Z,99462.03
2019-02-08T06:15:29.230Z,99465.59
2019-02-08T06:17:57.697Z,99456.56
2019-02-08T06:20:26.901Z,99441.55
2019-02-08T06:22:55.576Z,99458.87
2019-02-08T06:25:24.565Z,99455.48
2019-02-08T06:27:53.646Z,99458.59
2019-02-08T06:30:30.085Z,99464.07
2019-02-08T06:32:58.563Z,99461.25
2019-02-08T06:35:27.957Z,99463.64
2019-02-08T06:37:56.345Z,99465.20
2019-02-08T06:40:33.385Z,99464.53
2019-02-08T06:43:02.055Z,99466.50
2019-02-08T06:45:30.986Z,99472.28
2019-02-08T06:47:59.627Z,99467.75
2019-02-08T06:50:29.193Z,99469.44
2019-02-08T06:52:57.795Z,99467.92
2019-02-08T06:55:27.180Z,99473.97
2019-02-08T06:58:03.302Z,99477.87
2019-02-08T07:00:36.184Z,99478.69
2019-02-08T07:03:24.973Z,99492.17
2019-02-08T07:06:11.211Z,99499.20
2019-02-08T07:08:41.586Z,99500.09
2019-02-08T07:11:13.222Z,99496.55
2019-02-08T07:13:59.164Z,99493.94
2019-02-08T07:16:45.079Z,99497.90
2019-02-08T07:19:21.509Z,99490.25
2019-02-08T07:22:07.698Z,99489.20
2019-02-08T07:24:47.046Z,99493.27
2019-02-08T07:27:23.305Z,99490.09
2019-02-08T07:29:56.233Z,99490.72
2019-02-08T07:32:26.306Z,99492.18
2019-02-08T07:35:05.614Z,99489.25
2019-02-08T07:37:38.505Z,99480.77
2019-02-08T07:40:25.889Z,99482.23
2019-02-08T07:42:59.636Z,99476.24
2019-02-08T07:45:30.207Z,99473.64
2019-02-08T07:48:01.256Z,99475.94
2019-02-08T07:50:43.697Z,99477.38
2019-02-08T07:53:29.992Z,99469.11
2019-02-08T07:56:02.903Z,99459.48
2019-02-08T07:58:42.027Z,99466.23
2019-02-08T08:01:14.895Z,99462.95
2019-02-08T08:03:49.331Z,99462.71
2019-02-08T08:06:22.774Z,99463.39
2019-02-08T08:09:01.392Z,99468.20
2019-02-08T08:11:31.481Z,99472.95
2019-02-08T08:14:02.189Z,99469.20
2019-02-08T08:16:32.730Z,99470.51
2019-02-08T08:19:03.607Z,99473.47
2019-02-08T08:21:33.988Z,99477.88
2019-02-08T08:24:07.011Z,99482.58
2019-02-08T08:26:41.307Z,99475.55
2019-02-08T08:29:11.583Z,99479.45
2019-02-08T08:31:54.751Z,99484.95
2019-02-08T08:34:48.598Z,99480.19
2019-02-08T08:37:38.452Z,99485.28
2019-02-08T08:40:28.258Z,99478.25
2019-02-08T08:43:25.528Z,99490.70
2019-02-08T08:46:05.796Z,99483.30
2019-02-08T08:49:08.705Z,99477.58
2019-02-08T08:52:13.560Z,99473.77
2019-02-08T08:54:59.961Z,99465.70
2019-02-08T08:57:31.485Z,99466.77
2019-02-08T09:00:03.139Z,99467.20
2019-02-08T09:02:46.150Z,99463.07
2019-02-08T09:05:40.665Z,99455.72
2019-02-08T09:08:21.382Z,99464.20
2019-02-08T09:11:26.065Z,99458.09
2019-02-08T09:14:06.271Z,99453.67
2019-02-08T09:16:46.824Z,99451.98
2019-02-08T09:19:24.129Z,99454.04
2019-02-08T09:22:16.760Z,99449.44
2019-02-08T09:24:57.364Z,99447.18
2019-02-08T09:27:48.402Z,99452.80
2019-02-08T09:30:42.408Z,99443.81
2019-02-08T09:33:37.519Z,99431.63
2019-02-08T09:36:31.529Z,99425.89
2019-02-08T09:39:28.945Z,99426.90
2019-02-08T09:42:17.287Z,99429.25
2019-02-08T09:45:23.919Z,99434.12
2019-02-08T09:48:07.288Z,99429.79
2019-02-08T09:50:39.890Z,99429.63
2019-02-08T09:53:11.984Z,99434.66
2019-02-08T09:56:06.515Z,99427.95
2019-02-08T09:59:11.528Z,99419.62
2019-02-08T10:01:59.210Z,99420.45
2019-02-08T10:04:36.334Z,99410.49
2019-02-08T10:07:13.664Z,99415.24
2019-02-08T10:10:12.340Z,99413.20
2019-02-08T10:13:06.727Z,99408.58
2019-02-08T10:15:56.615Z,99407.73
2019-02-08T10:18:55.316Z,99397.90
2019-02-08T10:21:42.156Z,99413.35
2019-02-08T10:24:43.476Z,99400.50
2019-02-08T10:27:48.028Z,99403.63
2019-02-08T10:30:41.980Z,99396.51
2019-02-08T10:33:47.024Z,99396.08
2019-02-08T10:36:27.560Z,99387.77
2019-02-08T10:39:08.208Z,99388.23
2019-02-08T10:42:04.151Z,99389.05
2019-02-08T10:44:50.562Z,99390.28
2019-02-08T10:47:28.336Z,99389.05
2019-02-08T10:50:02.812Z,99392.73
2019-02-08T10:52:47.932Z,99397.18
2019-02-08T10:55:39.021Z,99401.52
2019-02-08T10:58:44.044Z,99394.57
2019-02-08T11:01:32.018Z,99384.50
2019-02-08T11:04:37.226Z,99388.52
2019-02-08T11:07:39.404Z,99388.48
2019-02-08T11:10:21.867Z,99376.14
2019-02-08T11:13:20.612Z,99379.98
2019-02-08T11:15:52.142Z,99355.03
2019-02-08T11:18:48.074Z,99388.78
2019-02-08T11:21:16.523Z,99379.98
2019-02-08T11:23:44.903Z,99378.58
2019-02-08T11:26:13.470Z,99378.68
2019-02-08T11:28:42.016Z,99362.72
2019-02-08T11:31:10.825Z,99358.07
2019-02-08T11:33:39.282Z,99357.50
2019-02-08T11:36:08.061Z,99343.45
2019-02-08T11:38:38.025Z,99342.41
2019-02-08T11:41:06.691Z,99334.52
2019-02-08T11:43:35.162Z,99334.47
2019-02-08T11:46:03.690Z,99334.19
2019-02-08T11:48:32.058Z,99330.66
2019-02-08T11:51:00.595Z,99331.50
2019-02-08T11:53:29.213Z,99325.73
2019-02-08T11:55:57.886Z,99326.55
2019-02-08T11:58:26.546Z,99320.49
2019-02-08T12:00:56.627Z,99317.75
2019-02-08T12:03:25.264Z,99314.34
2019-02-08T12:05:53.721Z,99313.31
2019-02-08T12:08:22.264Z,99307.17
2019-02-08T12:10:51.005Z,99307.53
2019-02-08T12:13:19.557Z,99297.56
2019-02-08T12:15:48.081Z,99297.38
2019-02-08T12:18:18.644Z,99297.98
2019-02-08T12:22:28.319Z,99284.66
2019-02-08T12:24:57.052Z,99287.31
2019-02-08T12:27:25.654Z,99287.48
2019-02-08T12:29:54.365Z,99277.11
2019-02-08T12:32:22.880Z,99277.16
2019-02-08T12:34:51.704Z,99275.86
2019-02-08T12:37:20.158Z,99277.78
2019-02-08T12:39:48.778Z,99276.55
2019-02-08T12:42:17.379Z,99280.69
2019-02-08T12:44:46.424Z,99263.72
2019-02-08T12:47:14.952Z,99275.38
2019-02-08T12:49:44.888Z,99268.03
2019-02-08T12:52:15.410Z,99263.58
2019-02-08T12:54:44.692Z,99260.75
2019-02-08T12:57:14.111Z,99246.79
2019-02-08T12:59:45.046Z,99241.49
2019-02-08T13:02:19.078Z,99245.27
2019-02-08T13:04:47.732Z,99235.03
2019-02-08T13:07:18.751Z,99216.53
2019-02-08T13:09:52.470Z,99205.76
2019-02-08T13:12:26.303Z,99203.02
2019-02-08T13:14:56.761Z,99198.30
2019-02-08T13:17:28.444Z,99194.86
2019-02-08T13:19:57.042Z,99190.23
2019-02-08T13:22:30.433Z,99187.16
2019-02-08T13:25:01.133Z,99183.84
2019-02-08T13:27:31.384Z,99177.00
2019-02-08T13:29:59.959Z,99156.06
2019-02-08T13:32:29.436Z,99164.27
2019-02-08T13:34:57.945Z,99167.52
2019-02-08T13:37:29.362Z,99167.67
2019-02-08T13:39:57.878Z,99168.06
2019-02-08T13:42:30.504Z,99160.70
2019-02-08T13:45:02.385Z,99161.92
2019-02-08T13:47:32.319Z,99163.94
2019-02-08T13:50:01.896Z,99157.01
2019-02-08T13:52:32.173Z,99163.55
2019-02-08T13:55:00.688Z,99153.84
2019-02-08T13:57:31.067Z,99150.40
2019-02-08T14:00:02.535Z,99145.17
2019-02-08T14:02:33.357Z,99145.80
2019-02-08T14:05:01.868Z,99138.56
2019-02-08T14:07:30.511Z,99132.34
2019-02-08T14:09:59.463Z,99117.50
2019-02-08T14:12:28.569Z,99124.90
2019-02-08T14:14:57.276Z,99113.97
2019-02-08T14:17:25.738Z,99115.95
2019-02-08T14:19:54.090Z,99122.92
2019-02-08T14:22:22.553Z,99118.96
2019-02-08T14:24:51.052Z,99120.47
2019-02-08T14:27:19.448Z,99118.64
2019-02-08T14:29:47.803Z,99116.90
2019-02-08T14:32:16.262Z,99114.73
2019-02-08T14:34:44.682Z,99118.20
2019-02-08T14:37:13.170Z,99114.29
2019-02-08T14:39:41.918Z,99119.12
2019-02-08T14:42:10.418Z,99116.43
2019-02-08T14:44:40.626Z,99108.83
2019-02-08T14:47:09.143Z,99102.69
2019-02-08T14:49:39.877Z,99096.91
2019-02-08T14:54:58.804Z,99085.91
2019-02-08T14:57:27.409Z,99087.59
2019-02-08T14:59:56.404Z,99074.45
2019-02-08T15:02:27.548Z,99086.37
2019-02-08T15:04:56.724Z,99085.06
2019-02-08T15:07:25.891Z,99081.42
2019-02-08T15:09:54.413Z,99081.15
2019-02-08T15:12:22.755Z,99085.74
2019-02-08T15:14:51.769Z,99083.01
2019-02-08T15:17:20.459Z,99079.45
2019-02-08T15:19:48.829Z,99072.80
2019-02-08T15:22:17.559Z,99068.79
2019-02-08T15:24:47.725Z,99068.64
2019-02-08T15:27:24.013Z,99063.33
2019-02-08T15:29:50.152Z,99052.77
2019-02-08T15:32:20.720Z,99057.75
2019-02-08T15:34:49.280Z,99050.55
2019-02-08T15:37:18.768Z,99045.04
2019-02-08T15:39:47.975Z,99043.22
2019-02-08T15:42:17.080Z,99046.42
2019-02-08T15:44:45.882Z,99038.03
2019-02-08T15:47:14.602Z,99040.50
2019-02-08T15:49:46.004Z,99031.97
2019-02-08T15:52:14.976Z,99026.83
2019-02-08T15:54:44.321Z,99023.91
2019-02-08T15:57:13.053Z,99021.02
2019-02-08T15:59:51.057Z,99021.17
2019-02-08T16:02:21.193Z,99008.36
2019-02-08T16:04:49.947Z,99008.05
2019-02-08T16:07:18.654Z,99006.91
2019-02-08T16:09:47.096Z,98998.23
2019-02-08T16:12:17.844Z,98994.70
2019-02-08T16:14:46.522Z,98996.65
2019-02-08T16:17:17.497Z,98983.59
2019-02-08T16:19:47.764Z,98984.66
2019-02-08T16:22:16.347Z,98984.39
2019-02-08T16:24:45.456Z,98983.00
2019-02-08T16:27:13.971Z,98978.61
2019-02-08T16:29:42.733Z,98976.62
2019-02-08T16:32:12.395Z,98974.27
2019-02-08T16:34:41.149Z,98964.17
2019-02-08T16:37:11.752Z,98971.84
2019-02-08T16:39:40.534Z,98966.59
2019-02-08T16:42:10.959Z,98968.53
2019-02-08T16:44:39.392Z,98962.20
2019-02-08T16:47:09.204Z,98958.16
2019-02-08T16:49:45.284Z,98949.02
2019-02-08T16:52:13.961Z,98948.20
2019-02-08T16:54:47.437Z,98950.88
2019-02-08T16:57:15.742Z,98944.36
2019-02-08T16:59:45.071Z,98948.44
2019-02-08T17:02:15.602Z,98943.13
2019-02-08T17:04:46.038Z,98946.14
2019-02-08T17:07:16.265Z,98938.16
2019-02-08T17:09:45.610Z,98937.23
2019-02-08T17:12:14.433Z,98938.70
2019-02-08T17:14:44.481Z,98929.89
2019-02-08T17:17:13.351Z,98925.77
2019-02-08T17:19:42.197Z,98921.63
2019-02-08T17:22:12.183Z,98909.56
2019-02-08T17:24:40.954Z,98898.14
2019-02-08T17:27:14.511Z,98902.97
2019-02-08T17:29:43.384Z,98897.86
2019-02-08T17:32:14.721Z,98904.39
2019-02-08T17:34:44.871Z,98897.07
2019-02-08T17:37:15.427Z,98898.69
2019-02-08T17:39:46.895Z,98896.99
2019-02-08T17:42:18.730Z,98892.41
2019-02-08T17:44:49.517Z,98888.09
2019-02-08T17:47:19.312Z,98886.36
2019-02-08T17:49:47.913Z,98884.66
2019-02-08T17:52:16.815Z,98877.06
2019-02-08T17:54:45.299Z,98882.09
2019-02-08T17:57:15.512Z,98880.34
2019-02-08T17:59:44.454Z,98877.55
2019-02-08T18:02:14.537Z,98870.19
2019-02-08T18:04:44.167Z,98868.29
2019-02-08T18:07:13.769Z,98868.30
2019-02-08T18:09:43.318Z,98865.84
2019-02-08T18:12:13.596Z,98873.79
2019-02-08T18:14:42.370Z,98871.26
2019-02-08T18:17:14.207Z,98867.42
2019-02-08T18:19:43.512Z,98873.79
2019-02-08T18:22:14.721Z,98878.09
2019-02-08T18:24:43.135Z,98871.73
2019-02-08T18:27:11.743Z,98875.83
2019-02-08T18:29:40.164Z,98874.38
2019-02-08T18:32:08.757Z,98861.49
2019-02-08T18:34:37.146Z,98863.58
2019-02-08T18:37:05.964Z,98857.34
2019-02-08T18:39:34.489Z,98854.45
2019-02-08T18:42:02.897Z,98848.44
2019-02-08T18:44:31.269Z,98847.14
2019-02-08T18:46:59.751Z,98854.05
2019-02-08T18:49:28.365Z,98845.55
2019-02-08T18:51:57.048Z,98840.70
2019-02-08T18:54:25.430Z,98836.90
2019-02-08T18:56:53.846Z,98829.06
2019-02-08T18:59:22.243Z,98825.80
2019-02-08T19:01:51.514Z,98827.36
2019-02-08T19:04:19.972Z,98825.95
2019-02-08T19:06:49.002Z,98818.36
2019-02-08T19:09:17.377Z,98818.34
2019-02-08T19:11:46.080Z,98803.34
2019-02-08T19:14:14.959Z,98809.94
2019-02-08T19:16:43.813Z,98804.80
2019-02-08T19:19:12.285Z,98803.89
2019-02-08T19:21:40.673Z,98790.29
2019-02-08T19:24:09.120Z,98787.48
2019-02-08T19:26:37.702Z,98783.98
2019-02-08T19:29:06.144Z,98776.70
2019-02-08T19:31:36.149Z,98782.97
2019-02-08T19:34:04.695Z,98784.66
2019-02-08T19:36:33.109Z,98778.31
2019-02-08T19:39:01.578Z,98772.59
2019-02-08T19:41:30.072Z,98771.76
2019-02-08T19:43:58.638Z,98766.11
2019-02-08T19:46:27.250Z,98765.98
2019-02-08T19:48:56.451Z,98765.13
2019-02-08T19:51:26.805Z,98763.46
2019-02-08T19:53:58.163Z,98756.19
2019-02-08T19:56:26.774Z,98745.38
2019-02-08T19:58:55.265Z,98741.46
2019-02-08T20:01:23.759Z,98738.89
2019-02-08T20:03:52.131Z,98744.42
2019-02-08T20:06:20.742Z,98745.02
2019-02-08T20:08:49.166Z,98736.47
2019-02-08T20:11:17.884Z,98737.78
2019-02-08T20:13:46.331Z,98737.70
2019-02-08T20:16:15.080Z,98730.27
2019-02-08T20:18:43.504Z,98718.14
2019-02-08T20:21:11.898Z,98725.91
2019-02-08T20:23:40.308Z,98726.80
2019-02-08T20:26:09.005Z,98729.98
2019-02-08T20:28:42.198Z,98723.97
2019-02-08T20:31:07.546Z,98719.31
2019-02-08T20:33:35.980Z,98720.84
2019-02-08T20:36:04.740Z,98706.00
2019-02-08T20:38:33.090Z,98708.60
2019-02-08T20:41:01.466Z,98712.35
2019-02-08T20:43:29.821Z,98701.05
2019-02-08T20:46:03.057Z,98700.14
2019-02-08T20:48:31.497Z,98692.64
2019-02-08T20:50:59.937Z,98690.59
2019-02-08T20:53:28.364Z,98693.95
2019-02-08T20:55:57.079Z,98702.69
2019-02-08T20:58:25.440Z,98704.55
2019-02-08T21:00:53.883Z,98696.37
2019-02-08T21:03:22.872Z,98701.75
2019-02-08T21:05:51.456Z,98697.47
2019-02-08T21:08:20.005Z,98696.37
2019-02-08T21:10:48.499Z,98695.06
2019-02-08T21:13:17.209Z,98701.14
2019-02-08T21:15:45.635Z,98690.45
2019-02-08T21:18:14.090Z,98699.41
2019-02-08T21:20:42.667Z,98685.94
2019-02-08T21:23:11.180Z,98684.96
2019-02-08T21:25:41.169Z,98693.06
2019-02-08T21:28:09.987Z,98693.61
2019-02-08T21:30:38.394Z,98693.67
2019-02-08T21:33:09.341Z,98694.00
2019-02-08T21:35:37.949Z,98694.51
2019-02-08T21:38:07.494Z,98694.67
2019-02-08T21:40:36.385Z,98684.71
2019-02-08T21:43:08.179Z,98692.53
2019-02-08T21:45:40.795Z,98693.84
2019-02-08T21:48:12.151Z,98684.27
2019-02-08T21:50:42.203Z,98683.69
2019-02-08T21:53:12.715Z,98680.36
2019-02-08T21:55:42.934Z,98683.75
2019-02-08T21:58:12.364Z,98668.79
2019-02-08T22:00:42.720Z,98670.01
2019-02-08T22:03:12.820Z,98659.39
2019-02-08T22:05:45.182Z,98651.95
2019-02-08T22:11:14.147Z,98645.16
2019-02-08T22:13:46.264Z,98639.41
2019-02-08T22:16:14.677Z,98640.98
2019-02-08T22:18:45.777Z,98625.98
2019-02-08T22:21:14.718Z,98626.95
2019-02-08T22:23:43.508Z,98624.34
2019-02-08T22:26:12.101Z,98619.30
2019-02-08T22:28:41.521Z,98622.37
2019-02-08T22:31:09.875Z,98631.59
2019-02-08T22:33:38.323Z,98623.53
2019-02-08T22:36:06.749Z,98626.37
2019-02-08T22:38:35.183Z,98626.54
2019-02-08T22:41:03.557Z,98622.41
2019-02-08T22:43:32.079Z,98612.36
2019-02-08T22:46:00.500Z,98605.93
2019-02-08T22:48:30.419Z,98597.53
2019-02-08T22:50:58.900Z,98590.76
2019-02-08T22:53:30.749Z,98595.01
2019-02-08T22:56:00.587Z,98587.67
2019-02-08T22:58:29.218Z,98579.77
2019-02-08T23:01:03.987Z,98574.54
2019-02-08T23:03:34.278Z,98562.25
2019-02-08T23:06:02.957Z,98548.72
2019-02-08T23:08:31.629Z,98550.52
2019-02-08T23:11:00.686Z,98546.04
2019-02-08T23:13:33.263Z,98539.95
2019-02-08T23:16:02.089Z,98537.34
2019-02-08T23:18:33.459Z,98531.52
2019-02-08T23:21:03.641Z,98518.75
2019-02-08T23:23:34.230Z,98520.06
2019-02-08T23:26:02.720Z,98511.97
2019-02-08T23:28:31.534Z,98506.75
2019-02-08T23:30:59.921Z,98509.72
2019-02-08T23:33:28.531Z,98497.63
2019-02-08T23:35:59.764Z,98505.36
2019-02-08T23:38:29.507Z,98491.03
2019-02-08T23:40:58.197Z,98483.67
2019-02-08T23:43:32.270Z,98493.55
2019-02-08T23:46:02.621Z,98490.55
2019-02-08T23:48:32.201Z,98483.47
2019-02-08T23:51:00.843Z,98476.77
2019-02-08T23:53:29.838Z,98482.47
2019-02-08T23:55:59.756Z,98483.67
2019-02-08T23:58:30.852Z,98480.23
